Terminal Aerodrome Forecast
Issued by NWS Cleveland, OH

Home | Current Version | Previous Version | Text Only | Print | Product List | Glossary Off
Versions: 1 2 3 4 5 6 7 8 9 10 11 12 13

633
FTUS41 KCLE 131405 AAA
TAFYNG
TAF AMD
KYNG 131405Z 1314/1412 33008KT P6SM OVC025
     FM132000 33008KT P6SM BKN250
     FM132300 03006KT P6SM SCT100 OVC250
     FM140300 06005KT P6SM OVC100=

USA.gov is the U.S. government's official web portal to all federal, state and local government web resources and services.